Terminal Aerodrome Forecast
Issued by NWS Los Angeles, CA

Home | Current Version | Previous Version | Text Only | Print | Product List | Glossary On
Versions: 1 2 3 4 5 6 7 8 9 10 11 12 13 14 15 16 17 18 19 20
000
FTUS46 KLOX 282300 RRA
TAFSMX
TAF
KSMX 282340Z 0100/0124 28009KT 6SM -SHRA BR SCT025 BKN040
     FM010300 26005KT P6SM -SHRA SCT025 OVC035
     FM010700 VRB03KT P6SM VCSH SCT025 BKN040
     FM011100 VRB03KT P6SM SCT025 BKN040
     FM011700 VRB03KT P6SM VCSH SCT030 BKN045
     FM012100 25008KT P6SM VCSH SCT035 BKN070=

USA.gov is the U.S. government's official web portal to all federal, state and local government web resources and services.